Time;durP1;ratioP1;P1;durP2;ratioP2;P2;SDS_P1;SDS_P2;PMS_P1;PMS_P2;Temp;Humidity;BMP_temperature;BMP_pressure;BME280_temperature;BME280_humidity;BME280_pressure;Samples;Min_cycle;Max_cycle;Signal;HPM_P1;HPM_P2
2021/12/20 00:01:20;;;;;;;11.48;8.25;;;;;;;6.45;70.15;99816.97;2617734;47;20030;-68
2021/12/20 00:03:50;;;;;;;13.02;9.55;;;;;;;6.49;70.10;99819.28;2618702;54;20073;-69
2021/12/20 00:06:21;;;;;;;9.82;7.82;;;;;;;6.55;69.68;99806.44;2618913;47;20033;-69
2021/12/20 00:08:51;;;;;;;12.52;9.27;;;;;;;6.57;69.86;99801.88;2623588;54;20030;-68
2021/12/20 00:11:23;;;;;;;11.25;8.55;;;;;;;6.54;69.33;99791.66;2625773;54;20038;-68
2021/12/20 00:13:52;;;;;;;10.82;8.45;;;;;;;6.47;69.34;99802.88;2622877;47;20034;-68
2021/12/20 00:16:22;;;;;;;9.70;7.78;;;;;;;6.43;69.85;99797.88;2619801;54;20038;-68
2021/12/20 00:18:52;;;;;;;11.75;9.02;;;;;;;6.47;69.77;99808.94;2618569;46;20038;-69
2021/12/20 00:21:22;;;;;;;11.10;8.52;;;;;;;6.50;69.50;99792.91;2619029;54;20042;-69
2021/12/20 00:23:52;;;;;;;11.15;8.57;;;;;;;6.49;69.79;99791.25;2619101;54;20565;-68
2021/12/20 00:26:24;;;;;;;10.70;8.82;;;;;;;6.44;69.59;99796.09;2618881;54;20081;-69
2021/12/20 00:28:54;;;;;;;11.20;8.52;;;;;;;6.41;69.71;99794.59;2618359;54;20026;-68
2021/12/20 00:31:24;;;;;;;10.20;8.32;;;;;;;6.40;69.68;99786.84;2618763;54;20617;-68
2021/12/20 00:33:53;;;;;;;10.65;8.27;;;;;;;6.41;69.50;99781.47;2619306;54;20031;-68
2021/12/20 00:36:26;;;;;;;10.68;8.20;;;;;;;6.37;69.86;99779.25;2618929;54;20031;-68
2021/12/20 00:41:40;;;;;;;12.93;8.93;;;;;;;6.32;69.96;99779.66;2618093;54;20065;-68
2021/12/20 00:44:10;;;;;;;11.48;8.85;;;;;;;6.29;69.83;99787.00;2618922;54;20042;-68
2021/12/20 00:46:55;;;;;;;10.07;8.30;;;;;;;6.27;69.44;99781.06;2618127;54;20053;-69
2021/12/20 00:49:24;;;;;;;14.13;8.75;;;;;;;6.25;69.51;99778.59;2618860;54;20073;-68
2021/12/20 00:51:54;;;;;;;12.52;9.55;;;;;;;6.30;69.81;99776.34;2618636;54;20042;-68
2021/12/20 00:54:24;;;;;;;11.55;9.13;;;;;;;6.30;70.07;99792.13;2618367;54;20049;-68
2021/12/20 00:56:56;;;;;;;12.88;9.40;;;;;;;6.28;69.74;99785.34;2617807;54;20065;-69
2021/12/20 00:59:26;;;;;;;13.45;9.73;;;;;;;6.29;70.11;99776.50;2618524;54;20035;-69
2021/12/20 01:01:56;;;;;;;9.45;7.78;;;;;;;6.31;69.96;99764.06;2618331;54;20047;-68
2021/12/20 01:04:25;;;;;;;11.80;8.90;;;;;;;6.30;69.80;99770.28;2618544;54;20037;-70
2021/12/20 01:06:55;;;;;;;10.98;8.80;;;;;;;6.32;69.98;99769.16;2618756;54;20026;-68
2021/12/20 01:09:25;;;;;;;12.30;8.98;;;;;;;6.33;69.81;99770.00;2618805;54;20030;-68
2021/12/20 01:12:03;;;;;;;11.73;9.20;;;;;;;6.29;69.64;99758.94;2618315;47;20039;-68
2021/12/20 01:14:33;;;;;;;11.50;9.00;;;;;;;6.23;69.60;99754.25;2619273;54;20506;-68
2021/12/20 01:17:05;;;;;;;12.32;9.68;;;;;;;6.22;70.18;99760.47;2618591;54;20022;-68
2021/12/20 01:19:35;;;;;;;11.63;9.30;;;;;;;6.20;70.17;99757.16;2618540;47;20564;-68
2021/12/20 01:22:07;;;;;;;11.75;9.45;;;;;;;6.24;70.30;99762.94;2618626;54;20038;-68
2021/12/20 01:24:37;;;;;;;12.57;9.20;;;;;;;6.25;69.96;99756.75;2618512;54;20086;-69
2021/12/20 01:27:09;;;;;;;12.65;10.18;;;;;;;6.20;70.08;99755.38;2617726;54;20050;-69
2021/12/20 01:29:39;;;;;;;13.48;10.18;;;;;;;6.19;70.11;99751.06;2619979;31;20455;-69
2021/12/20 01:32:09;;;;;;;13.43;9.95;;;;;;;6.18;70.06;99762.56;2618945;54;20038;-69
2021/12/20 01:34:39;;;;;;;13.73;9.30;;;;;;;6.20;70.45;99765.03;2618414;47;20030;-69
2021/12/20 01:37:08;;;;;;;12.20;9.68;;;;;;;6.17;70.07;99766.16;2619573;54;20050;-69
2021/12/20 01:39:38;;;;;;;12.75;9.70;;;;;;;6.27;70.16;99765.31;2618868;54;20054;-69
2021/12/20 01:42:11;;;;;;;11.95;9.05;;;;;;;6.37;70.41;99766.94;2619930;39;20425;-69
2021/12/20 01:44:40;;;;;;;10.68;8.43;;;;;;;6.34;70.28;99756.72;2619238;54;20045;-69
2021/12/20 01:47:10;;;;;;;17.73;9.63;;;;;;;6.34;70.06;99748.03;2619108;54;20106;-69
2021/12/20 01:49:52;;;;;;;13.60;9.13;;;;;;;6.36;69.66;99752.13;2618627;54;20031;-68
2021/12/20 01:52:25;;;;;;;12.32;9.10;;;;;;;6.37;69.88;99753.00;2618414;54;20034;-69
2021/12/20 01:54:55;;;;;;;11.25;8.95;;;;;;;6.32;69.59;99758.66;2618968;54;20035;-68
2021/12/20 01:57:27;;;;;;;11.27;8.50;;;;;;;6.31;69.55;99753.53;2618379;51;20053;-68
2021/12/20 01:59:56;;;;;;;13.02;9.18;;;;;;;6.23;70.09;99753.44;2619207;39;20418;-69
2021/12/20 02:02:26;;;;;;;10.90;8.40;;;;;;;6.19;69.76;99750.25;2618822;54;20090;-68
2021/12/20 02:05:04;;;;;;;12.77;8.60;;;;;;;6.14;70.00;99750.69;2618804;54;20026;-68
2021/12/20 02:07:48;;;;;;;10.90;8.70;;;;;;;6.18;70.06;99759.09;2619165;54;20034;-69
2021/12/20 02:10:18;;;;;;;12.45;9.13;;;;;;;6.16;70.38;99763.66;2619587;54;20568;-68
2021/12/20 02:12:51;;;;;;;11.48;8.25;;;;;;;6.16;70.49;99758.41;2619346;54;20105;-69
2021/12/20 02:15:20;;;;;;;10.85;8.38;;;;;;;6.12;70.41;99760.50;2624235;54;20065;-70
2021/12/20 02:17:50;;;;;;;11.05;7.88;;;;;;;6.10;70.69;99753.72;2624829;39;20446;-68
2021/12/20 02:20:31;;;;;;;10.07;8.18;;;;;;;6.12;70.69;99746.53;2624606;54;20047;-68
2021/12/20 02:23:02;;;;;;;11.85;7.95;;;;;;;6.02;70.47;99743.09;2623749;39;20445;-68
2021/12/20 02:25:33;;;;;;;11.05;8.75;;;;;;;6.00;70.48;99751.13;2619703;54;20037;-68
2021/12/20 02:28:06;;;;;;;11.02;8.43;;;;;;;5.98;70.62;99746.97;2618600;54;20041;-68
2021/12/20 02:30:47;;;;;;;11.35;9.32;;;;;;;6.01;70.59;99741.47;2619467;54;20031;-68
2021/12/20 02:38:45;;;;;;;11.10;8.30;;;;;;;6.00;71.11;99730.13;2624092;54;20030;-69
2021/12/20 02:41:17;;;;;;;12.65;7.95;;;;;;;5.92;70.85;99736.06;2622993;54;20062;-67
2021/12/20 02:43:53;;;;;;;10.77;7.75;;;;;;;5.92;70.85;99730.81;2621304;47;20077;-67
2021/12/20 02:46:45;;;;;;;11.00;8.27;;;;;;;5.90;71.22;99732.72;2618387;54;20545;-67
2021/12/20 02:49:16;;;;;;;8.95;7.25;;;;;;;5.94;70.88;99728.06;2619106;54;20030;-67
2021/12/20 02:51:50;;;;;;;9.98;7.43;;;;;;;5.93;70.76;99727.22;2619266;54;20026;-68
2021/12/20 02:54:21;;;;;;;11.25;7.65;;;;;;;5.92;71.40;99732.63;2621783;47;20030;-67
2021/12/20 02:56:52;;;;;;;9.75;7.47;;;;;;;5.97;71.30;99732.22;2622427;54;20034;-67
2021/12/20 02:59:21;;;;;;;11.25;8.63;;;;;;;6.02;70.81;99727.34;2622197;54;20549;-68
2021/12/20 03:01:55;;;;;;;10.95;7.88;;;;;;;6.07;71.10;99727.75;2622328;54;20039;-68
2021/12/20 03:04:25;;;;;;;11.27;8.20;;;;;;;6.09;71.05;99731.09;2621872;47;20018;-67
2021/12/20 03:07:00;;;;;;;11.32;7.40;;;;;;;6.11;71.17;99729.13;2622477;47;20023;-68
2021/12/20 03:09:34;;;;;;;12.75;7.80;;;;;;;6.13;70.66;99735.09;2623963;54;20034;-69
2021/12/20 03:12:07;;;;;;;12.55;9.15;;;;;;;6.20;71.13;99734.38;2626609;39;20112;-68
2021/12/20 03:14:40;;;;;;;11.10;7.68;;;;;;;6.15;70.46;99731.31;2620125;54;20041;-68
2021/12/20 03:17:11;;;;;;;11.20;8.57;;;;;;;6.15;70.81;99727.88;2618441;54;20031;-68
2021/12/20 03:19:41;;;;;;;8.75;7.15;;;;;;;6.16;70.46;99725.13;2618796;54;20034;-68
2021/12/20 03:22:13;;;;;;;10.98;8.35;;;;;;;6.16;70.53;99727.75;2619045;54;20077;-68
2021/12/20 03:24:43;;;;;;;12.52;8.25;;;;;;;6.13;70.83;99729.81;2618867;54;20035;-69
2021/12/20 03:27:13;;;;;;;11.20;8.13;;;;;;;6.11;70.55;99729.13;2618839;54;20046;-68
2021/12/20 03:29:42;;;;;;;10.45;7.40;;;;;;;6.05;70.84;99725.28;2617905;54;20027;-68
2021/12/20 03:32:12;;;;;;;11.63;7.45;;;;;;;6.02;71.07;99722.94;2618116;54;20085;-68
2021/12/20 03:34:42;;;;;;;10.52;7.53;;;;;;;6.01;71.29;99723.09;2618567;54;20680;-69
2021/12/20 03:37:14;;;;;;;10.95;8.07;;;;;;;5.95;71.22;99722.66;2618444;54;20061;-69
2021/12/20 03:39:44;;;;;;;11.80;8.00;;;;;;;5.97;70.78;99732.22;2618736;54;20543;-68
2021/12/20 03:42:14;;;;;;;10.73;7.78;;;;;;;5.92;71.03;99738.69;2618497;54;20038;-68
2021/12/20 03:44:45;;;;;;;10.93;8.07;;;;;;;5.94;70.94;99734.13;2618447;54;20107;-68
2021/12/20 03:47:15;;;;;;;9.77;6.80;;;;;;;5.89;71.09;99725.81;2618588;54;20039;-68
2021/12/20 03:49:45;;;;;;;11.65;7.40;;;;;;;5.82;71.31;99727.34;2618785;54;20538;-68
2021/12/20 03:52:17;;;;;;;9.85;7.03;;;;;;;5.85;71.20;99716.56;2617817;54;20038;-68
2021/12/20 03:54:47;;;;;;;8.85;6.97;;;;;;;5.80;71.59;99724.03;2618296;47;20038;-68
2021/12/20 03:57:17;;;;;;;10.15;7.38;;;;;;;5.80;71.77;99725.84;2617885;54;20041;-68
2021/12/20 03:59:48;;;;;;;9.10;7.07;;;;;;;5.81;71.45;99725.69;2618449;54;20041;-68
2021/12/20 04:02:20;;;;;;;10.20;7.30;;;;;;;5.86;71.61;99720.84;2617606;54;20065;-68
2021/12/20 04:04:50;;;;;;;10.43;8.15;;;;;;;5.84;71.66;99716.72;2618528;54;20030;-68
2021/12/20 04:07:22;;;;;;;9.05;7.20;;;;;;;5.83;71.93;99704.53;2618745;47;20034;-68
2021/12/20 04:09:51;;;;;;;8.18;6.85;;;;;;;5.77;71.91;99710.38;2619237;54;20043;-68
2021/12/20 04:12:21;;;;;;;11.32;8.48;;;;;;;5.75;71.61;99710.50;2618854;47;20026;-68
2021/12/20 04:14:51;;;;;;;8.90;6.80;;;;;;;5.77;72.04;99719.06;2619185;54;20034;-68
2021/12/20 04:17:20;;;;;;;9.38;7.18;;;;;;;5.81;71.88;99722.25;2618908;54;20081;-69
2021/12/20 04:19:50;;;;;;;7.78;6.25;;;;;;;5.77;71.83;99707.75;2618548;54;20039;-69
2021/12/20 04:22:22;;;;;;;8.77;7.05;;;;;;;5.75;71.67;99715.75;2618139;54;20049;-69
2021/12/20 04:24:52;;;;;;;7.80;5.97;;;;;;;5.76;71.41;99708.72;2617668;54;20039;-69
2021/12/20 04:27:21;;;;;;;9.07;6.22;;;;;;;5.78;71.80;99712.84;2618478;54;20162;-69
2021/12/20 04:29:53;;;;;;;10.05;6.95;;;;;;;5.79;71.37;99714.50;2622683;54;20038;-69
2021/12/20 04:32:23;;;;;;;9.15;6.20;;;;;;;5.85;71.56;99708.69;2624424;47;20042;-69
2021/12/20 04:34:53;;;;;;;9.45;7.00;;;;;;;5.90;71.23;99716.16;2621942;54;20030;-68
2021/12/20 04:37:25;;;;;;;9.05;6.68;;;;;;;6.00;71.65;99714.38;2619978;39;20452;-69
2021/12/20 04:39:55;;;;;;;9.05;6.78;;;;;;;6.08;70.75;99705.78;2618951;54;20034;-69
2021/12/20 04:42:24;;;;;;;8.50;6.50;;;;;;;6.15;70.63;99710.31;2618983;54;20101;-69
2021/12/20 04:44:54;;;;;;;9.43;6.82;;;;;;;6.19;70.18;99710.88;2619341;54;20034;-69
2021/12/20 04:47:23;;;;;;;11.13;8.18;;;;;;;6.15;70.03;99704.25;2618928;54;20054;-69
2021/12/20 04:49:53;;;;;;;8.27;6.20;;;;;;;6.05;69.99;99712.16;2618481;51;20042;-69
2021/12/20 04:52:26;;;;;;;8.75;6.13;;;;;;;6.08;70.20;99721.53;2619379;54;20566;-68
2021/12/20 04:54:56;;;;;;;8.20;5.85;;;;;;;5.99;70.08;99710.06;2618713;54;20023;-70
2021/12/20 04:57:26;;;;;;;8.68;5.72;;;;;;;6.06;70.75;99710.34;2618554;54;20035;-67
2021/12/20 04:59:55;;;;;;;8.48;6.78;;;;;;;6.08;70.10;99711.88;2619555;54;20042;-68
2021/12/20 05:02:25;;;;;;;10.75;7.40;;;;;;;6.08;70.14;99709.25;2618325;54;20038;-69
2021/12/20 05:04:55;;;;;;;14.43;9.00;;;;;;;6.14;70.12;99707.84;2618790;54;20604;-69
2021/12/20 05:07:27;;;;;;;11.85;8.13;;;;;;;6.04;69.90;99710.50;2618928;54;20035;-69
2021/12/20 05:10:01;;;;;;;9.63;7.13;;;;;;;6.03;70.54;99708.81;2618846;54;20797;-67
2021/12/20 05:12:31;;;;;;;11.23;7.47;;;;;;;6.04;70.14;99714.91;2618397;54;20034;-67
2021/12/20 05:15:01;;;;;;;11.05;7.53;;;;;;;6.03;70.58;99716.69;2618741;47;20023;-68
2021/12/20 05:17:30;;;;;;;19.88;14.68;;;;;;;6.05;70.43;99711.34;2618424;54;20106;-69
2021/12/20 05:20:00;;;;;;;11.77;7.88;;;;;;;6.07;70.51;99710.19;2618506;47;20031;-70
2021/12/20 05:22:33;;;;;;;9.88;7.88;;;;;;;6.06;70.18;99711.19;2618594;54;20038;-69
2021/12/20 05:25:02;;;;;;;10.35;6.93;;;;;;;6.02;70.18;99714.22;2618426;47;20034;-69
2021/12/20 05:27:32;;;;;;;11.40;8.05;;;;;;;6.07;70.10;99719.88;2618862;54;20588;-69
2021/12/20 05:30:03;;;;;;;10.05;6.75;;;;;;;6.01;70.00;99718.66;2618276;47;20118;-69
2021/12/20 05:32:33;;;;;;;9.65;6.70;;;;;;;5.95;70.01;99714.78;2618506;54;20043;-69
2021/12/20 05:35:04;;;;;;;12.48;7.43;;;;;;;5.90;70.43;99721.41;2618754;54;20051;-69
2021/12/20 05:37:37;;;;;;;10.05;7.85;;;;;;;5.89;70.42;99715.31;2619574;39;20442;-69
2021/12/20 05:40:09;;;;;;;11.75;7.47;;;;;;;5.96;70.27;99718.25;2619022;54;20042;-69
2021/12/20 05:42:39;;;;;;;11.27;7.60;;;;;;;6.02;70.47;99727.34;2618432;54;20050;-69
2021/12/20 05:45:10;;;;;;;13.93;7.10;;;;;;;6.02;70.12;99725.56;2618972;54;20073;-68
2021/12/20 05:47:39;;;;;;;8.90;6.30;;;;;;;6.02;70.14;99729.97;2618668;54;20061;-69
2021/12/20 05:50:11;;;;;;;10.60;7.22;;;;;;;5.99;69.96;99730.25;2618404;47;20046;-70
2021/12/20 05:52:43;;;;;;;8.98;6.88;;;;;;;6.02;70.65;99733.44;2618183;54;20042;-70
2021/12/20 05:55:13;;;;;;;10.73;7.50;;;;;;;6.10;70.23;99730.94;2617656;54;20035;-69
2021/12/20 05:57:43;;;;;;;11.20;6.53;;;;;;;6.08;69.91;99732.88;2618676;54;20038;-69
2021/12/20 06:00:16;;;;;;;11.20;7.03;;;;;;;5.99;70.09;99735.50;2619423;54;20038;-67
2021/12/20 06:02:49;;;;;;;9.77;6.35;;;;;;;6.04;70.19;99738.53;2618384;54;20038;-68
2021/12/20 06:05:19;;;;;;;8.57;6.38;;;;;;;5.96;69.49;99744.50;2619367;54;20073;-68
2021/12/20 06:07:51;;;;;;;9.00;6.57;;;;;;;5.97;69.78;99734.84;2619765;54;20030;-69
2021/12/20 06:10:22;;;;;;;12.32;7.10;;;;;;;5.99;70.13;99740.75;2619597;54;20518;-69
2021/12/20 06:12:51;;;;;;;12.23;7.50;;;;;;;5.99;69.59;99749.44;2619165;54;20081;-68
2021/12/20 06:15:21;;;;;;;11.70;7.20;;;;;;;5.94;69.57;99746.44;2619445;54;20030;-69
2021/12/20 06:17:51;;;;;;;9.40;6.18;;;;;;;5.94;69.73;99744.63;2619390;54;20037;-69
2021/12/20 06:20:21;;;;;;;11.02;6.18;;;;;;;5.95;69.87;99748.91;2619071;47;20053;-68
2021/12/20 06:22:53;;;;;;;11.32;6.97;;;;;;;5.92;69.78;99746.56;2619367;54;20103;-68
2021/12/20 06:25:25;;;;;;;11.70;6.70;;;;;;;5.93;69.46;99744.78;2619621;54;20049;-69
2021/12/20 06:27:55;;;;;;;10.82;7.28;;;;;;;5.89;69.64;99744.19;2619492;54;20035;-68
2021/12/20 06:30:25;;;;;;;9.23;6.47;;;;;;;5.93;69.83;99744.78;2620035;54;20030;-70
2021/12/20 06:32:54;;;;;;;10.77;6.75;;;;;;;5.89;69.54;99752.06;2618591;54;20031;-69
2021/12/20 06:35:36;;;;;;;11.40;6.28;;;;;;;5.85;70.08;99755.94;2619013;54;20030;-68
2021/12/20 06:38:11;;;;;;;8.38;5.78;;;;;;;5.92;70.32;99751.00;2619566;54;20045;-70
2021/12/20 06:40:41;;;;;;;10.32;6.10;;;;;;;5.94;70.00;99743.81;2619041;54;20039;-69
2021/12/20 06:43:10;;;;;;;14.95;7.60;;;;;;;6.02;69.59;99751.81;2619281;54;20090;-69
2021/12/20 06:45:40;;;;;;;12.07;7.13;;;;;;;6.10;69.79;99751.09;2619352;54;20049;-70
2021/12/20 06:48:10;;;;;;;11.27;6.82;;;;;;;6.15;69.07;99754.13;2619416;54;20034;-69
2021/12/20 06:50:40;;;;;;;10.50;6.75;;;;;;;6.08;69.14;99747.78;2619768;54;20034;-69
2021/12/20 06:53:12;;;;;;;8.05;5.43;;;;;;;6.01;69.15;99741.47;2619107;54;20146;-69
2021/12/20 06:55:41;;;;;;;7.82;5.18;;;;;;;5.97;68.75;99740.09;2619046;54;20030;-68
2021/12/20 06:58:11;;;;;;;7.43;4.95;;;;;;;6.10;68.58;99746.69;2619313;54;20038;-68
2021/12/20 07:00:41;;;;;;;9.13;4.30;;;;;;;6.05;67.71;99755.97;2619380;47;20038;-68
2021/12/20 07:03:11;;;;;;;8.15;4.65;;;;;;;5.91;67.44;99759.78;2619436;54;20033;-68
2021/12/20 07:05:41;;;;;;;5.78;3.78;;;;;;;5.90;67.74;99758.97;2619775;54;20117;-68
2021/12/20 07:08:13;;;;;;;20.02;6.28;;;;;;;5.92;67.77;99762.31;2619845;54;20053;-69
2021/12/20 07:10:44;;;;;;;9.15;4.55;;;;;;;5.95;67.54;99754.16;2619593;54;20049;-69
2021/12/20 07:13:13;;;;;;;11.52;4.47;;;;;;;5.94;67.36;99757.75;2619374;54;20042;-68
2021/12/20 07:15:44;;;;;;;7.72;4.13;;;;;;;5.91;67.71;99757.16;2619478;54;20077;-69
2021/12/20 07:18:13;;;;;;;7.60;4.45;;;;;;;6.00;67.44;99766.88;2619233;47;20082;-69
2021/12/20 07:20:43;;;;;;;8.30;4.25;;;;;;;5.94;67.07;99773.50;2619253;54;20035;-69
2021/12/20 07:23:15;;;;;;;8.68;4.72;;;;;;;5.88;67.39;99775.84;2618328;47;20561;-69
2021/12/20 07:25:45;;;;;;;12.70;4.72;;;;;;;5.83;67.38;99778.03;2618895;47;20023;-69
2021/12/20 07:28:16;;;;;;;9.23;4.32;;;;;;;5.82;67.96;99781.63;2619308;54;20061;-68
2021/12/20 07:30:47;;;;;;;9.70;5.03;;;;;;;5.80;67.75;99781.75;2619395;54;20027;-69
2021/12/20 07:33:21;;;;;;;9.50;6.45;;;;;;;5.81;68.39;99774.72;2620088;47;20122;-69
2021/12/20 07:35:51;;;;;;;9.80;5.43;;;;;;;5.85;68.50;99783.97;2620692;54;20082;-69
2021/12/20 07:38:24;;;;;;;7.10;4.70;;;;;;;5.86;68.45;99781.19;2621486;39;20434;-69
2021/12/20 07:40:54;;;;;;;9.90;5.25;;;;;;;5.94;68.29;99778.75;2619751;54;20057;-69
2021/12/20 07:43:23;;;;;;;11.57;6.43;;;;;;;5.87;67.96;99779.41;2619535;54;20030;-69
2021/12/20 07:45:53;;;;;;;9.15;6.18;;;;;;;5.78;68.79;99781.06;2620458;39;20654;-69
2021/12/20 07:48:24;;;;;;;10.27;7.63;;;;;;;5.72;68.76;99782.44;2620293;54;20046;-68
2021/12/20 07:50:53;;;;;;;11.07;7.68;;;;;;;5.70;69.56;99784.38;2621954;54;20133;-69
2021/12/20 07:53:26;;;;;;;12.43;6.93;;;;;;;5.68;69.73;99783.69;2618994;54;20035;-68
2021/12/20 07:55:56;;;;;;;11.63;6.90;;;;;;;5.76;69.96;99785.63;2619426;54;20030;-68
2021/12/20 07:58:25;;;;;;;13.10;7.28;;;;;;;5.82;69.92;99787.69;2619526;54;20038;-68
2021/12/20 08:00:55;;;;;;;9.32;6.88;;;;;;;5.76;69.35;99785.63;2618495;54;20602;-67
2021/12/20 08:03:25;;;;;;;10.93;7.35;;;;;;;5.73;69.87;99783.28;2618353;54;20026;-68
2021/12/20 08:05:54;;;;;;;14.73;7.57;;;;;;;5.74;69.89;99787.56;2619295;54;20038;-69
2021/12/20 08:08:26;;;;;;;9.32;6.53;;;;;;;5.74;69.99;99789.34;2619345;54;20022;-69
2021/12/20 08:10:57;;;;;;;11.30;6.50;;;;;;;5.72;70.07;99785.06;2620081;54;20074;-67
2021/12/20 08:13:26;;;;;;;8.25;6.28;;;;;;;5.69;69.51;99787.97;2620726;39;20472;-68
2021/12/20 08:15:56;;;;;;;9.35;6.38;;;;;;;5.67;70.10;99784.66;2620171;54;20041;-68
2021/12/20 08:18:26;;;;;;;11.15;6.57;;;;;;;5.67;70.27;99783.81;2620218;54;20117;-69
2021/12/20 08:20:55;;;;;;;9.75;7.22;;;;;;;5.69;70.57;99789.75;2619836;54;20034;-67
2021/12/20 08:23:28;;;;;;;11.20;7.57;;;;;;;5.71;70.67;99787.81;2619959;54;20031;-68
2021/12/20 08:25:57;;;;;;;9.70;6.50;;;;;;;5.75;70.59;99793.63;2619207;47;20027;-67
2021/12/20 08:28:27;;;;;;;11.52;7.35;;;;;;;5.79;70.55;99801.06;2619519;47;20033;-68
2021/12/20 08:30:57;;;;;;;10.45;6.47;;;;;;;5.83;70.31;99802.47;2620779;39;20418;-68
2021/12/20 08:33:26;;;;;;;12.73;6.82;;;;;;;5.82;70.27;99807.84;2621631;54;20042;-68
2021/12/20 08:35:56;;;;;;;13.20;7.53;;;;;;;5.88;70.31;99802.91;2621363;54;20037;-67
2021/12/20 08:38:28;;;;;;;11.68;6.60;;;;;;;5.91;69.93;99810.47;2621367;54;20541;-68
2021/12/20 08:41:02;;;;;;;14.45;6.32;;;;;;;5.92;69.84;99806.13;2620490;54;20038;-68
2021/12/20 08:43:32;;;;;;;11.05;5.72;;;;;;;5.87;69.14;99814.34;2620388;54;20572;-68
2021/12/20 08:46:02;;;;;;;13.95;5.15;;;;;;;5.80;68.95;99807.19;2620032;39;20430;-68
2021/12/20 08:48:33;;;;;;;10.18;5.50;;;;;;;5.85;69.05;99816.28;2620570;54;20780;-68
2021/12/20 08:51:03;;;;;;;12.85;6.13;;;;;;;5.89;69.26;99814.22;2619896;54;20045;-70
2021/12/20 08:53:36;;;;;;;12.68;5.05;;;;;;;5.92;68.39;99809.56;2621822;39;20426;-68
2021/12/20 08:56:06;;;;;;;10.45;4.40;;;;;;;5.87;68.01;99821.38;2621794;54;20034;-69
2021/12/20 08:58:36;;;;;;;10.00;4.75;;;;;;;5.86;68.53;99822.34;2626027;54;20027;-68
2021/12/20 09:01:06;;;;;;;11.77;5.55;;;;;;;5.89;68.40;99815.03;2623892;47;20038;-68
2021/12/20 09:03:35;;;;;;;14.50;4.63;;;;;;;5.89;67.43;99822.91;2620394;47;20026;-68
2021/12/20 09:06:05;;;;;;;10.02;4.18;;;;;;;5.80;67.80;99828.19;2620775;54;20040;-69
2021/12/20 09:08:39;;;;;;;14.75;5.50;;;;;;;5.77;67.78;99821.41;2620937;54;20055;-69
2021/12/20 09:11:09;;;;;;;10.47;4.30;;;;;;;5.77;67.45;99816.16;2620785;54;20035;-68
2021/12/20 09:13:38;;;;;;;13.45;4.25;;;;;;;5.80;67.88;99820.31;2620436;54;20295;-69
2021/12/20 09:16:08;;;;;;;11.52;4.22;;;;;;;5.83;67.42;99827.88;2620166;54;20038;-69
2021/12/20 09:18:37;;;;;;;16.30;4.70;;;;;;;5.85;67.12;99826.78;2619615;47;20034;-68
2021/12/20 09:21:09;;;;;;;11.70;4.50;;;;;;;5.91;67.37;99828.84;2619512;47;20034;-68
2021/12/20 09:23:42;;;;;;;13.73;4.35;;;;;;;5.93;66.99;99834.00;2620050;54;20026;-68
2021/12/20 09:26:12;;;;;;;17.90;4.35;;;;;;;5.96;66.64;99841.63;2620870;39;20423;-67
2021/12/20 09:28:42;;;;;;;8.95;4.07;;;;;;;6.05;66.63;99834.72;2620241;54;20061;-68
2021/12/20 09:31:12;;;;;;;13.27;4.22;;;;;;;6.11;65.20;99842.00;2618523;51;20045;-68
2021/12/20 09:33:42;;;;;;;12.95;3.97;;;;;;;6.04;65.31;99843.53;2618625;54;20038;-68
2021/12/20 09:36:12;;;;;;;15.68;4.20;;;;;;;6.03;65.30;99842.69;2619081;39;20490;-69
2021/12/20 09:38:44;;;;;;;15.32;4.10;;;;;;;6.10;65.14;99840.38;2619171;39;20414;-68
2021/12/20 09:41:59;;;;;;;14.15;4.18;;;;;;;6.08;65.11;99837.03;2618102;54;20141;-67
2021/12/20 09:44:08;;;;;;;14.65;4.00;;;;;;;6.08;64.97;99850.16;2618514;54;20030;-65
2021/12/20 09:46:38;;;;;;;11.15;4.07;;;;;;;6.10;65.05;99849.06;2618758;54;20038;-65
2021/12/20 09:49:09;;;;;;;9.70;3.67;;;;;;;6.28;65.32;99846.56;2619123;39;20399;-68
2021/12/20 09:51:39;;;;;;;13.07;3.80;;;;;;;6.44;64.40;99841.56;2618511;54;20038;-70
2021/12/20 09:54:11;;;;;;;13.45;3.60;;;;;;;6.63;63.41;99847.75;2619280;39;20438;-70
2021/12/20 09:56:41;;;;;;;11.98;3.10;;;;;;;6.52;62.64;99847.91;2618555;54;20063;-66
2021/12/20 09:59:16;;;;;;;14.40;3.72;;;;;;;6.41;62.00;99844.50;2618369;54;20547;-67
2021/12/20 10:01:46;;;;;;;11.07;3.50;;;;;;;6.28;62.92;99845.72;2618184;54;20545;-66
2021/12/20 10:04:16;;;;;;;11.95;3.47;;;;;;;6.26;62.98;99840.63;2618605;39;20455;-67
2021/12/20 10:06:46;;;;;;;11.18;2.88;;;;;;;6.22;62.28;99841.06;2618531;54;20570;-67
2021/12/20 10:09:25;;;;;;;12.95;3.70;;;;;;;6.23;62.32;99840.06;2617688;54;20042;-67
2021/12/20 10:12:14;;;;;;;11.38;3.33;;;;;;;6.17;62.00;99844.09;2618247;54;20042;-67
2021/12/20 10:15:00;;;;;;;15.73;3.55;;;;;;;6.15;61.86;99844.22;2617934;54;20038;-67
2021/12/20 10:17:34;;;;;;;12.38;3.72;;;;;;;6.18;62.14;99841.31;2618580;54;20037;-67
2021/12/20 10:20:23;;;;;;;10.88;3.80;;;;;;;6.16;62.40;99845.91;2618651;54;20030;-67
2021/12/20 10:22:55;;;;;;;13.40;3.05;;;;;;;6.19;61.54;99842.97;2618246;54;20022;-68
2021/12/20 10:25:30;;;;;;;12.88;3.22;;;;;;;6.20;61.81;99839.41;2619080;39;20459;-68
2021/12/20 10:28:08;;;;;;;11.88;3.22;;;;;;;6.26;61.49;99845.88;2617809;54;20051;-68
2021/12/20 10:30:41;;;;;;;13.73;4.65;;;;;;;6.34;61.29;99832.06;2618230;54;20038;-67
2021/12/20 10:33:12;;;;;;;17.20;5.80;;;;;;;6.43;61.10;99831.22;2618095;54;20035;-68
2021/12/20 22:04:22;;;;;;;18.30;8.35;;;;;;;-0.50;71.33;99795.41;2562954;46;20038;31
2021/12/20 22:06:52;;;;;;;20.05;8.63;;;;;;;-0.38;71.47;99803.34;2619961;47;20035;-68
2021/12/20 22:09:23;;;;;;;21.77;8.75;;;;;;;-0.28;71.08;99796.66;2621640;39;20421;-68
2021/12/20 22:11:52;;;;;;;16.75;8.80;;;;;;;-0.29;71.01;99794.97;2622465;54;20030;-66
2021/12/20 22:14:22;;;;;;;17.98;8.07;;;;;;;-0.36;71.17;99791.13;2623119;46;20065;-68
2021/12/20 22:16:52;;;;;;;17.13;8.00;;;;;;;-0.24;71.59;99797.28;2623127;54;20033;-68
2021/12/20 22:19:24;;;;;;;13.40;8.00;;;;;;;-0.21;71.44;99794.47;2621754;54;20074;-68
2021/12/20 22:21:54;;;;;;;15.02;7.57;;;;;;;-0.20;70.96;99790.97;2621509;54;20026;-68
2021/12/20 22:24:23;;;;;;;17.27;9.07;;;;;;;-0.19;71.39;99790.03;2621789;47;20026;-68
2021/12/20 22:26:53;;;;;;;17.92;8.25;;;;;;;-0.23;70.99;99794.59;2623005;54;20038;-67
2021/12/20 22:29:23;;;;;;;15.30;8.27;;;;;;;-0.14;71.13;99801.78;2622536;47;20061;-69
2021/12/20 22:31:53;;;;;;;19.67;8.90;;;;;;;-0.13;71.04;99800.84;2622804;54;20062;-69
2021/12/20 22:34:26;;;;;;;15.77;8.50;;;;;;;-0.22;70.51;99793.63;2623964;54;20038;-68
2021/12/20 22:36:59;;;;;;;17.10;8.82;;;;;;;-0.27;70.49;99793.13;2623844;54;20042;-68
2021/12/20 22:39:29;;;;;;;17.60;8.50;;;;;;;-0.38;70.77;99798.16;2621778;54;20022;-67
2021/12/20 22:41:59;;;;;;;16.55;8.60;;;;;;;-0.37;70.50;99798.09;2619263;46;20037;-67
2021/12/20 22:44:29;;;;;;;19.05;10.10;;;;;;;-0.43;70.61;99795.03;2621360;54;20042;-68
2021/12/20 22:46:59;;;;;;;20.63;9.77;;;;;;;-0.50;71.09;99794.59;2622157;39;20453;-69
2021/12/20 22:49:31;;;;;;;21.63;10.68;;;;;;;-0.48;71.54;99794.50;2623480;54;20038;-68
2021/12/20 22:52:01;;;;;;;21.95;9.95;;;;;;;-0.45;70.82;99791.69;2622518;54;20041;-67
2021/12/20 22:54:30;;;;;;;23.65;9.50;;;;;;;-0.52;70.68;99794.69;2622825;54;20035;-68
2021/12/20 22:57:00;;;;;;;24.90;11.13;;;;;;;-0.66;71.16;99799.09;2623437;54;20045;-68
2021/12/20 22:59:29;;;;;;;27.90;10.52;;;;;;;-0.76;71.43;99802.28;2623196;47;20030;-68
2021/12/20 23:01:59;;;;;;;20.80;11.18;;;;;;;-0.83;71.22;99808.75;2593525;54;20038;-67
2021/12/20 23:04:32;;;;;;;23.70;10.85;;;;;;;-0.91;71.54;99795.44;2623988;54;20042;-68
2021/12/20 23:07:02;;;;;;;20.30;10.32;;;;;;;-1.02;71.77;99797.88;2624128;39;20074;-68
2021/12/20 23:09:39;;;;;;;24.33;10.52;;;;;;;-1.10;71.92;99802.72;2623075;47;20031;-67
2021/12/20 23:12:16;;;;;;;22.20;9.40;;;;;;;-1.19;71.99;99801.47;2623715;47;20026;-69
2021/12/20 23:14:46;;;;;;;18.65;8.52;;;;;;;-1.22;72.43;99800.88;2624177;54;20038;-70
2021/12/20 23:17:16;;;;;;;18.90;8.27;;;;;;;-1.25;72.72;99800.09;2625221;54;20042;-68
2021/12/20 23:19:49;;;;;;;18.38;7.38;;;;;;;-1.26;72.69;99800.22;2625170;54;20026;-68
2021/12/20 23:22:18;;;;;;;18.45;6.97;;;;;;;-1.28;72.61;99802.06;2624932;54;20034;-69
2021/12/20 23:24:48;;;;;;;18.35;6.38;;;;;;;-1.31;72.54;99799.63;2624814;54;20031;-69
2021/12/20 23:27:20;;;;;;;15.85;6.15;;;;;;;-1.32;72.62;99798.81;2625268;54;20038;-69
2021/12/20 23:29:49;;;;;;;16.13;6.45;;;;;;;-1.35;73.04;99791.22;2625260;54;20026;-69